createdAt,value
2022-10-28T00:00:45.989Z,101364.97
2022-10-28T00:03:12.108Z,101362.28
2022-10-28T00:05:38.254Z,101357.75
2022-10-28T00:08:04.441Z,101355.97
2022-10-28T00:10:30.632Z,101348.09
2022-10-28T00:12:56.767Z,101342.88
2022-10-28T00:15:22.964Z,101347.28
2022-10-28T00:17:49.126Z,101348.91
2022-10-28T00:20:15.312Z,101354.94
2022-10-28T00:22:41.458Z,101338.84
2022-10-28T00:25:07.661Z,101351.44
2022-10-28T00:27:33.800Z,101368.03
2022-10-28T00:29:59.981Z,101362.88
2022-10-28T00:32:26.120Z,101368.09
2022-10-28T00:34:52.287Z,101362.06
2022-10-28T00:37:18.498Z,101360.31
2022-10-28T00:39:44.717Z,101333.94
2022-10-28T00:42:10.878Z,101361.03
2022-10-28T00:44:37.095Z,101365.34
2022-10-28T00:47:03.326Z,101364.38
2022-10-28T00:49:29.566Z,101371.38
2022-10-28T00:51:55.713Z,101367.75
2022-10-28T00:54:21.899Z,101367.69
2022-10-28T00:56:48.140Z,101360.69
2022-10-28T00:59:14.352Z,101356.94
2022-10-28T01:01:40.571Z,101357.72
2022-10-28T01:04:06.803Z,101358.38
2022-10-28T01:06:36.025Z,101352.03
2022-10-28T01:09:02.256Z,101347.59
2022-10-28T01:11:28.397Z,101345.69
2022-10-28T01:13:54.581Z,101342.03
2022-10-28T01:16:20.811Z,101339.25
2022-10-28T01:18:46.964Z,101343.41
2022-10-28T01:21:13.075Z,101337.81
2022-10-28T01:23:39.254Z,101336.53
2022-10-28T01:26:05.421Z,101337.88
2022-10-28T01:28:31.583Z,101341.22
2022-10-28T01:30:57.778Z,101341.06
2022-10-28T01:33:23.963Z,101342.63
2022-10-28T01:35:50.131Z,101337.13
2022-10-28T01:38:16.320Z,101343.97
2022-10-28T01:40:42.472Z,101334.09
2022-10-28T01:43:08.574Z,101343.44
2022-10-28T01:45:34.704Z,101344.75
2022-10-28T01:48:00.876Z,101348.00
2022-10-28T01:50:26.995Z,101350.50
2022-10-28T01:52:53.354Z,101347.78
2022-10-28T01:55:19.678Z,101333.63
2022-10-28T01:57:45.826Z,101337.84
2022-10-28T02:00:11.959Z,101341.97
2022-10-28T02:02:38.104Z,101348.81
2022-10-28T02:05:04.250Z,101336.38
2022-10-28T02:07:30.395Z,101328.41
2022-10-28T02:09:56.511Z,101321.22
2022-10-28T02:12:22.609Z,101311.50
2022-10-28T02:14:48.738Z,101314.88
2022-10-28T02:17:14.865Z,101313.09
2022-10-28T02:19:40.990Z,101306.84
2022-10-28T02:22:07.155Z,101304.13
2022-10-28T02:24:35.176Z,101301.34
2022-10-28T02:27:08.584Z,101303.91
2022-10-28T02:29:34.769Z,101310.84
2022-10-28T02:32:00.927Z,101308.28
2022-10-28T02:34:27.108Z,101305.66
2022-10-28T02:36:53.247Z,101310.00
2022-10-28T02:39:19.370Z,101306.44
2022-10-28T02:41:45.532Z,101292.31
2022-10-28T02:44:11.722Z,101297.16
2022-10-28T02:46:37.845Z,101300.38
2022-10-28T02:49:03.986Z,101303.63
2022-10-28T02:51:30.112Z,101296.38
2022-10-28T02:53:56.247Z,101289.78
2022-10-28T02:56:22.798Z,101283.50
2022-10-28T02:58:48.987Z,101285.91
2022-10-28T03:01:15.190Z,101282.06
2022-10-28T03:03:41.440Z,101279.13
2022-10-28T03:06:07.585Z,101259.59
2022-10-28T03:08:33.712Z,101264.38
2022-10-28T03:10:59.823Z,101256.41
2022-10-28T03:13:25.972Z,101257.09
2022-10-28T03:15:52.097Z,101267.06
2022-10-28T03:18:18.215Z,101263.19
2022-10-28T03:20:44.370Z,101255.47
2022-10-28T03:23:10.541Z,101249.75
2022-10-28T03:25:36.698Z,101242.16
2022-10-28T03:28:02.809Z,101246.50
2022-10-28T03:30:28.951Z,101243.97
2022-10-28T03:32:55.262Z,101240.38
2022-10-28T03:35:21.696Z,101243.97
2022-10-28T03:37:47.826Z,101245.75
2022-10-28T03:40:13.955Z,101246.50
2022-10-28T03:42:41.432Z,101237.94
2022-10-28T03:45:09.724Z,101226.81
2022-10-28T03:47:35.862Z,101226.25
2022-10-28T03:50:01.971Z,101236.78
2022-10-28T03:52:28.097Z,101233.53
2022-10-28T03:54:54.246Z,101220.56
2022-10-28T03:57:20.407Z,101226.75
2022-10-28T03:59:46.526Z,101234.41
2022-10-28T04:02:12.876Z,101243.91
2022-10-28T04:04:39.231Z,101243.03
2022-10-28T04:07:05.356Z,101239.13
2022-10-28T04:09:31.511Z,101244.31
2022-10-28T04:11:57.657Z,101239.97
2022-10-28T04:14:23.789Z,101236.25
2022-10-28T04:16:49.920Z,101231.38
2022-10-28T04:19:16.033Z,101242.84
2022-10-28T04:21:42.188Z,101240.28
2022-10-28T04:24:08.310Z,101230.34
2022-10-28T04:26:34.411Z,101222.44
2022-10-28T04:29:00.551Z,101224.31
2022-10-28T04:31:26.652Z,101218.56
2022-10-28T04:33:52.752Z,101213.75
2022-10-28T04:36:18.886Z,101223.41
2022-10-28T04:38:44.992Z,101219.00
2022-10-28T04:41:11.107Z,101222.84
2022-10-28T04:43:37.241Z,101229.06
2022-10-28T04:46:03.368Z,101231.19
2022-10-28T04:48:29.547Z,101244.34
2022-10-28T04:50:55.671Z,101248.41
2022-10-28T04:53:21.778Z,101246.38
2022-10-28T04:55:47.943Z,101250.13
2022-10-28T04:58:14.051Z,101253.31
2022-10-28T05:00:40.167Z,101261.78
2022-10-28T05:03:06.307Z,101245.03
2022-10-28T05:05:32.433Z,101258.25
2022-10-28T05:07:58.573Z,101257.56
2022-10-28T05:10:24.701Z,101257.91
2022-10-28T05:12:50.822Z,101255.56
2022-10-28T05:15:16.999Z,101249.66
2022-10-28T05:17:43.122Z,101250.97
2022-10-28T05:20:09.250Z,101240.94
2022-10-28T05:22:35.391Z,101256.16
2022-10-28T05:25:02.719Z,101260.88
2022-10-28T05:27:28.863Z,101261.97
2022-10-28T05:29:55.002Z,101268.47
2022-10-28T05:32:21.131Z,101268.22
2022-10-28T05:34:47.282Z,101268.31
2022-10-28T05:37:13.397Z,101268.31
2022-10-28T05:39:39.598Z,101255.25
2022-10-28T05:42:05.705Z,101254.41
2022-10-28T05:44:31.852Z,101245.59
2022-10-28T05:46:58.012Z,101235.94
2022-10-28T05:49:24.142Z,101243.56
2022-10-28T05:51:50.253Z,101241.56
2022-10-28T05:54:18.408Z,101230.94
2022-10-28T05:56:44.514Z,101225.44
2022-10-28T05:59:10.765Z,101223.25
2022-10-28T06:01:36.960Z,101223.00
2022-10-28T06:04:03.201Z,101221.13
2022-10-28T06:06:29.380Z,101223.94
2022-10-28T06:08:55.497Z,101216.22
2022-10-28T06:11:20.114Z,101212.03
2022-10-28T06:13:46.214Z,101217.38
2022-10-28T06:16:13.459Z,101213.00
2022-10-28T06:18:39.864Z,101224.09
2022-10-28T06:21:06.001Z,101223.00
2022-10-28T06:23:32.138Z,101226.56
2022-10-28T06:28:29.337Z,101222.78
2022-10-28T06:30:55.486Z,101226.63
2022-10-28T06:33:21.628Z,101238.25
2022-10-28T06:35:47.780Z,101250.88
2022-10-28T06:38:13.906Z,101254.31
2022-10-28T06:40:40.048Z,101252.59
2022-10-28T06:43:06.212Z,101255.22
2022-10-28T06:45:32.374Z,101259.56
2022-10-28T06:48:00.041Z,101256.78
2022-10-28T06:50:26.221Z,101264.41
2022-10-28T06:52:52.474Z,101270.72
2022-10-28T06:55:18.637Z,101276.06
2022-10-28T06:57:44.790Z,101275.75
2022-10-28T07:00:10.925Z,101280.94
2022-10-28T07:02:40.196Z,101286.03
2022-10-28T07:05:08.880Z,101273.47
2022-10-28T07:07:35.039Z,101273.19
2022-10-28T07:10:01.188Z,101278.47
2022-10-28T07:12:27.353Z,101277.53
2022-10-28T07:14:53.500Z,101291.63
2022-10-28T07:17:19.649Z,101299.41
2022-10-28T07:19:48.633Z,101293.16
2022-10-28T07:22:14.805Z,101300.97
2022-10-28T07:24:40.936Z,101300.00
2022-10-28T07:27:07.078Z,101310.44
2022-10-28T07:29:33.213Z,101311.81
2022-10-28T07:31:59.399Z,101306.47
2022-10-28T07:34:27.230Z,101296.72
2022-10-28T07:36:53.768Z,101300.78
2022-10-28T07:39:19.949Z,101309.38
2022-10-28T07:41:46.095Z,101309.09
2022-10-28T07:44:12.228Z,101304.53
2022-10-28T07:46:38.372Z,101302.72
2022-10-28T07:49:04.501Z,101308.16
2022-10-28T07:51:30.629Z,101304.53
2022-10-28T07:53:56.830Z,101298.13
2022-10-28T07:56:22.969Z,101298.81
2022-10-28T07:58:49.146Z,101307.16
2022-10-28T08:01:17.716Z,101302.38
2022-10-28T08:03:43.974Z,101304.84
2022-10-28T08:06:11.316Z,101297.25
2022-10-28T08:08:37.472Z,101311.88
2022-10-28T08:11:03.629Z,101311.78
2022-10-28T08:13:29.789Z,101299.19
2022-10-28T08:15:56.179Z,101320.84
2022-10-28T08:18:25.547Z,101313.69
2022-10-28T08:20:54.465Z,101304.94
2022-10-28T08:23:20.619Z,101296.38
2022-10-28T08:25:46.753Z,101301.97
2022-10-28T08:28:12.905Z,101305.91
2022-10-28T08:30:56.637Z,101303.69
2022-10-28T08:33:25.667Z,101301.25
2022-10-28T08:35:51.817Z,101302.50
2022-10-28T08:38:17.955Z,101298.69
2022-10-28T08:40:44.120Z,101298.53
2022-10-28T08:43:10.260Z,101299.88
2022-10-28T08:45:36.434Z,101296.00
2022-10-28T08:48:02.620Z,101297.44
2022-10-28T08:50:28.812Z,101290.84
2022-10-28T08:52:55.333Z,101298.25
2022-10-28T08:55:21.761Z,101299.56
2022-10-28T08:57:47.888Z,101301.16
2022-10-28T09:00:14.044Z,101293.16
2022-10-28T09:02:40.209Z,101290.50
2022-10-28T09:05:06.373Z,101291.34
2022-10-28T09:07:32.493Z,101289.06
2022-10-28T09:09:58.626Z,101292.56
2022-10-28T09:12:24.902Z,101282.56
2022-10-28T09:14:58.218Z,101290.47
2022-10-28T09:17:24.345Z,101280.28
2022-10-28T09:19:50.470Z,101267.63
2022-10-28T09:22:20.681Z,101269.31
2022-10-28T09:24:47.351Z,101272.59
2022-10-28T09:27:13.470Z,101285.53
2022-10-28T09:29:41.919Z,101290.19
2022-10-28T09:32:10.413Z,101294.56
2022-10-28T09:34:36.582Z,101296.34
2022-10-28T09:37:02.711Z,101301.03
2022-10-28T09:39:28.822Z,101309.88
2022-10-28T09:41:54.992Z,101322.56
2022-10-28T09:44:21.120Z,101309.28
2022-10-28T09:46:47.293Z,101295.66
2022-10-28T09:49:13.421Z,101292.41
2022-10-28T09:51:39.561Z,101297.06
2022-10-28T09:54:05.702Z,101295.28
2022-10-28T09:56:31.837Z,101290.97
2022-10-28T09:58:57.996Z,101289.69
2022-10-28T10:01:24.164Z,101284.38
2022-10-28T10:03:50.345Z,101282.22
2022-10-28T10:06:16.468Z,101291.81
2022-10-28T10:08:42.632Z,101295.25
2022-10-28T10:11:08.750Z,101303.06
2022-10-28T10:13:41.130Z,101284.00
2022-10-28T10:16:07.282Z,101286.09
2022-10-28T10:18:33.459Z,101280.41
2022-10-28T10:20:59.636Z,101287.63
2022-10-28T10:23:25.854Z,101291.75
2022-10-28T10:25:52.014Z,101292.84
2022-10-28T10:28:18.188Z,101283.19
2022-10-28T10:30:44.323Z,101279.44
2022-10-28T10:33:10.434Z,101275.91
2022-10-28T10:35:36.649Z,101289.66
2022-10-28T10:38:02.828Z,101287.50
2022-10-28T10:40:28.965Z,101287.50
2022-10-28T10:43:12.747Z,101282.94
2022-10-28T10:45:40.057Z,101281.75
2022-10-28T10:48:06.210Z,101269.22
2022-10-28T10:53:03.378Z,101266.94
2022-10-28T10:55:29.491Z,101271.75
2022-10-28T10:57:56.058Z,101271.94
2022-10-28T11:00:22.447Z,101262.09
2022-10-28T11:02:52.208Z,101268.78
2022-10-28T11:05:25.753Z,101266.72
2022-10-28T11:07:55.663Z,101260.13
2022-10-28T11:10:21.968Z,101249.38
2022-10-28T11:12:49.541Z,101254.81
2022-10-28T11:15:15.719Z,101252.69
2022-10-28T11:17:41.873Z,101242.28
2022-10-28T11:20:08.028Z,101240.56
2022-10-28T11:22:34.328Z,101239.75
2022-10-28T11:25:00.525Z,101242.00
2022-10-28T11:27:26.666Z,101240.88
2022-10-28T11:29:52.805Z,101246.88
2022-10-28T11:32:18.962Z,101240.97
2022-10-28T11:34:45.110Z,101234.09
2022-10-28T11:37:11.221Z,101227.38
2022-10-28T11:39:37.373Z,101234.56
2022-10-28T11:42:03.531Z,101238.81
2022-10-28T11:44:29.722Z,101232.06
2022-10-28T11:46:57.578Z,101226.66
2022-10-28T11:49:25.762Z,101228.91
2022-10-28T11:51:51.893Z,101222.91
2022-10-28T11:54:18.045Z,101222.91
2022-10-28T11:56:44.189Z,101221.31
2022-10-28T11:59:10.349Z,101211.81
2022-10-28T12:01:36.573Z,101203.38
2022-10-28T12:04:02.813Z,101208.44
2022-10-28T12:06:28.986Z,101204.97
2022-10-28T12:08:55.190Z,101201.28
2022-10-28T12:11:21.362Z,101180.91
2022-10-28T12:13:47.559Z,101201.00
2022-10-28T12:16:13.688Z,101206.22
2022-10-28T12:18:39.800Z,101199.31
2022-10-28T12:21:05.981Z,101193.66
2022-10-28T12:23:32.161Z,101190.44
2022-10-28T12:25:58.284Z,101184.66
2022-10-28T12:28:24.414Z,101184.13
2022-10-28T12:30:50.527Z,101178.09
2022-10-28T12:33:17.205Z,101172.47
2022-10-28T12:35:43.344Z,101169.81
2022-10-28T12:38:09.801Z,101166.84
2022-10-28T12:40:35.963Z,101164.13
2022-10-28T12:43:02.094Z,101159.41
2022-10-28T12:45:28.237Z,101174.31
2022-10-28T12:47:54.624Z,101166.72
2022-10-28T12:50:20.934Z,101164.97
2022-10-28T12:52:47.076Z,101167.06
2022-10-28T12:57:44.284Z,101147.06
2022-10-28T13:00:10.578Z,101154.00
2022-10-28T13:02:36.877Z,101149.91
2022-10-28T13:05:03.033Z,101154.72
2022-10-28T13:07:29.166Z,101146.88
2022-10-28T13:09:55.315Z,101138.88
2022-10-28T13:12:21.462Z,101141.56
2022-10-28T13:14:47.582Z,101142.81
2022-10-28T13:17:13.745Z,101149.09
2022-10-28T13:19:39.914Z,101143.06
2022-10-28T13:22:06.035Z,101150.91
2022-10-28T13:24:32.415Z,101153.69
2022-10-28T13:26:58.615Z,101156.34
2022-10-28T13:29:24.796Z,101156.94
2022-10-28T13:31:51.000Z,101153.44
2022-10-28T13:34:17.123Z,101159.31
2022-10-28T13:36:43.268Z,101159.47
2022-10-28T13:39:09.416Z,101155.81
2022-10-28T13:41:35.519Z,101150.75
2022-10-28T13:44:01.685Z,101151.25
2022-10-28T13:46:27.796Z,101149.44
2022-10-28T13:48:53.982Z,101147.34
2022-10-28T13:51:20.107Z,101145.94
2022-10-28T13:53:46.277Z,101134.63
2022-10-28T13:56:12.490Z,101133.78
2022-10-28T13:58:38.622Z,101138.69
2022-10-28T14:01:04.824Z,101132.25
2022-10-28T14:03:31.157Z,101135.03
2022-10-28T14:05:57.515Z,101137.84
2022-10-28T14:08:23.735Z,101125.19
2022-10-28T14:10:49.865Z,101133.75
2022-10-28T14:15:47.107Z,101146.25
2022-10-28T14:18:37.325Z,101145.56
2022-10-28T14:20:59.690Z,101153.09
2022-10-28T14:23:25.835Z,101141.75
2022-10-28T14:25:51.979Z,101145.94
2022-10-28T14:28:18.154Z,101139.53
2022-10-28T14:30:46.480Z,101137.88
2022-10-28T14:33:12.746Z,101133.81
2022-10-28T14:35:38.883Z,101144.47
2022-10-28T14:38:05.034Z,101153.88
2022-10-28T14:40:31.210Z,101144.19
2022-10-28T14:42:57.368Z,101139.03
2022-10-28T14:45:25.870Z,101138.31
2022-10-28T14:47:52.350Z,101136.44
2022-10-28T14:50:18.722Z,101143.47
2022-10-28T14:52:50.638Z,101143.03
2022-10-28T14:55:16.760Z,101142.03
2022-10-28T14:57:42.944Z,101138.22
2022-10-28T15:00:09.120Z,101143.69
2022-10-28T15:02:35.425Z,101140.19
2022-10-28T15:05:01.705Z,101142.59
2022-10-28T15:07:27.823Z,101141.16
2022-10-28T15:09:54.060Z,101142.50
2022-10-28T15:12:20.295Z,101140.41
2022-10-28T15:14:46.479Z,101148.38
2022-10-28T15:17:12.625Z,101149.47
2022-10-28T15:19:38.825Z,101147.16
2022-10-28T15:22:04.977Z,101143.53
2022-10-28T15:24:31.172Z,101142.19
2022-10-28T15:26:57.464Z,101147.66
2022-10-28T15:29:23.589Z,101140.56
2022-10-28T15:31:49.793Z,101147.28
2022-10-28T15:34:15.958Z,101143.72
2022-10-28T15:36:42.195Z,101147.38
2022-10-28T15:39:08.472Z,101149.56
2022-10-28T15:41:34.645Z,101155.47
2022-10-28T15:44:00.788Z,101150.56
2022-10-28T15:46:26.914Z,101159.63
2022-10-28T15:48:53.090Z,101151.09
2022-10-28T15:51:19.211Z,101139.16
2022-10-28T15:53:45.664Z,101143.88
2022-10-28T15:56:11.853Z,101146.66
2022-10-28T15:58:37.985Z,101146.47
2022-10-28T16:01:04.173Z,101150.94
2022-10-28T16:06:01.561Z,101162.13
2022-10-28T16:08:27.688Z,101156.56
2022-10-28T16:10:53.871Z,101165.72
2022-10-28T16:13:19.991Z,101164.59
2022-10-28T16:15:46.144Z,101168.69
2022-10-28T16:18:12.274Z,101165.66
2022-10-28T16:20:38.444Z,101168.53
2022-10-28T16:25:44.699Z,101167.47
2022-10-28T16:28:10.851Z,101166.22
2022-10-28T16:30:36.980Z,101164.00
2022-10-28T16:33:03.140Z,101158.31
2022-10-28T16:35:29.254Z,101160.44
2022-10-28T16:37:55.990Z,101166.31
2022-10-28T16:43:09.467Z,101180.31
2022-10-28T16:45:35.647Z,101179.06
2022-10-28T16:48:01.798Z,101180.47
2022-10-28T16:50:27.923Z,101197.00
2022-10-28T16:52:54.087Z,101199.63
2022-10-28T16:55:20.213Z,101202.06
2022-10-28T16:57:46.371Z,101197.84
2022-10-28T17:00:12.547Z,101207.34
2022-10-28T17:02:38.843Z,101197.75
2022-10-28T17:05:05.214Z,101197.22
2022-10-28T17:07:44.004Z,101194.22
2022-10-28T17:10:12.597Z,101201.13
2022-10-28T17:12:38.761Z,101193.47
2022-10-28T17:15:04.904Z,101199.25
2022-10-28T17:17:31.063Z,101204.91
2022-10-28T17:19:57.211Z,101204.38
2022-10-28T17:22:23.539Z,101200.16
2022-10-28T17:24:49.725Z,101196.22
2022-10-28T17:27:15.843Z,101206.16
2022-10-28T17:29:42.015Z,101204.66
2022-10-28T17:32:08.197Z,101218.91
2022-10-28T17:34:34.352Z,101208.44
2022-10-28T17:37:00.509Z,101206.88
2022-10-28T17:39:26.773Z,101198.88
2022-10-28T17:41:52.920Z,101221.00
2022-10-28T17:44:19.071Z,101217.69
2022-10-28T17:46:45.218Z,101226.22
2022-10-28T17:49:11.370Z,101228.53
2022-10-28T17:51:37.517Z,101221.84
2022-10-28T17:54:03.668Z,101224.94
2022-10-28T17:56:29.792Z,101215.84
2022-10-28T17:58:55.931Z,101215.56
2022-10-28T18:01:22.149Z,101222.97
2022-10-28T18:03:48.415Z,101227.59
2022-10-28T18:06:14.539Z,101231.47
2022-10-28T18:08:40.693Z,101231.56
2022-10-28T18:11:06.897Z,101236.09
2022-10-28T18:13:33.064Z,101238.94
2022-10-28T18:15:59.297Z,101236.28
2022-10-28T18:18:25.478Z,101242.47
2022-10-28T18:20:51.646Z,101232.13
2022-10-28T18:23:17.774Z,101239.09
2022-10-28T18:25:44.894Z,101239.38
2022-10-28T18:28:11.043Z,101236.94
2022-10-28T18:30:37.200Z,101238.91
2022-10-28T18:33:03.369Z,101237.38
2022-10-28T18:35:29.557Z,101248.13
2022-10-28T18:37:56.282Z,101247.56
2022-10-28T18:40:22.739Z,101256.59
2022-10-28T18:42:48.923Z,101258.75
2022-10-28T18:45:15.267Z,101254.50
2022-10-28T18:47:41.484Z,101265.22
2022-10-28T18:50:07.643Z,101259.28
2022-10-28T18:52:33.774Z,101259.75
2022-10-28T18:54:59.925Z,101267.00
2022-10-28T18:57:26.081Z,101267.16
2022-10-28T19:00:17.275Z,101269.16
2022-10-28T19:02:41.030Z,101264.03
2022-10-28T19:05:09.531Z,101262.44
2022-10-28T19:07:35.684Z,101259.91
2022-10-28T19:10:01.853Z,101255.47
2022-10-28T19:12:27.995Z,101261.31
2022-10-28T19:14:54.155Z,101255.97
2022-10-28T19:17:20.297Z,101251.34
2022-10-28T19:19:46.419Z,101255.69
2022-10-28T19:22:12.516Z,101258.44
2022-10-28T19:24:38.653Z,101254.94
2022-10-28T19:27:04.781Z,101250.78
2022-10-28T19:29:31.001Z,101261.25
2022-10-28T19:31:57.125Z,101260.47
2022-10-28T19:34:23.248Z,101259.53
2022-10-28T19:36:49.367Z,101263.13
2022-10-28T19:39:15.489Z,101265.75
2022-10-28T19:41:41.639Z,101265.84
2022-10-28T19:44:07.767Z,101266.00
2022-10-28T19:46:33.895Z,101269.75
2022-10-28T19:49:00.037Z,101270.78
2022-10-28T19:51:26.171Z,101274.69
2022-10-28T19:53:52.334Z,101283.88
2022-10-28T19:56:18.458Z,101285.06
2022-10-28T19:58:44.565Z,101287.38
2022-10-28T20:01:10.822Z,101282.38
2022-10-28T20:03:39.176Z,101286.19
2022-10-28T20:06:05.529Z,101291.81
2022-10-28T20:08:31.679Z,101296.38
2022-10-28T20:10:57.829Z,101297.66
2022-10-28T20:13:23.937Z,101304.09
2022-10-28T20:15:50.055Z,101305.22
2022-10-28T20:18:16.211Z,101303.56
2022-10-28T20:20:42.344Z,101304.75
2022-10-28T20:23:08.482Z,101293.72
2022-10-28T20:25:34.625Z,101302.63
2022-10-28T20:28:00.775Z,101301.94
2022-10-28T20:30:26.912Z,101297.78
2022-10-28T20:32:55.736Z,101305.91
2022-10-28T20:35:22.093Z,101301.50
2022-10-28T20:37:48.323Z,101300.34
2022-10-28T20:40:14.504Z,101300.25
2022-10-28T20:42:40.635Z,101297.78
2022-10-28T20:45:06.787Z,101297.84
2022-10-28T20:47:32.901Z,101297.16
2022-10-28T20:49:59.011Z,101298.13
2022-10-28T20:54:56.208Z,101304.69
2022-10-28T20:57:22.318Z,101309.34
2022-10-28T20:59:48.476Z,101303.41
2022-10-28T21:02:14.795Z,101314.13
2022-10-28T21:04:40.994Z,101310.03
2022-10-28T21:07:07.147Z,101309.81
2022-10-28T21:09:33.281Z,101322.34
2022-10-28T21:11:59.412Z,101317.94
2022-10-28T21:14:25.550Z,101323.72
2022-10-28T21:16:51.660Z,101318.78
2022-10-28T21:19:17.786Z,101327.63
2022-10-28T21:21:43.938Z,101327.00
2022-10-28T21:24:10.097Z,101320.88
2022-10-28T21:26:36.263Z,101331.47
2022-10-28T21:29:02.429Z,101329.72
2022-10-28T21:31:28.539Z,101332.72
2022-10-28T21:33:54.688Z,101338.47
2022-10-28T21:36:20.842Z,101343.91
2022-10-28T21:38:46.987Z,101348.47
2022-10-28T21:41:13.113Z,101352.03
2022-10-28T21:43:39.260Z,101352.38
2022-10-28T21:46:05.404Z,101352.56
2022-10-28T21:48:31.573Z,101352.88
2022-10-28T21:50:57.689Z,101354.81
2022-10-28T21:53:23.853Z,101362.13
2022-10-28T21:55:51.135Z,101370.97
2022-10-28T21:58:17.530Z,101361.44
2022-10-28T22:00:44.664Z,101364.22
2022-10-28T22:03:10.796Z,101361.75
2022-10-28T22:05:36.921Z,101365.44
2022-10-28T22:08:04.915Z,101372.53
2022-10-28T22:10:31.465Z,101369.16
2022-10-28T22:12:57.585Z,101371.00
2022-10-28T22:15:23.720Z,101367.59
2022-10-28T22:17:49.859Z,101371.91
2022-10-28T22:20:16.068Z,101370.34
2022-10-28T22:22:42.284Z,101382.69
2022-10-28T22:25:10.453Z,101383.63
2022-10-28T22:27:36.913Z,101373.25
2022-10-28T22:30:03.074Z,101378.50
2022-10-28T22:32:29.201Z,101368.16
2022-10-28T22:34:55.346Z,101366.63
2022-10-28T22:37:21.488Z,101371.91
2022-10-28T22:39:47.622Z,101366.81
2022-10-28T22:42:13.723Z,101367.81
2022-10-28T22:44:39.844Z,101360.06
2022-10-28T22:47:05.982Z,101352.28
2022-10-28T22:49:32.117Z,101354.03
2022-10-28T22:51:58.249Z,101355.09
2022-10-28T22:54:24.369Z,101357.94
2022-10-28T22:56:50.494Z,101353.63
2022-10-28T22:59:16.688Z,101357.16
2022-10-28T23:01:42.904Z,101351.97
2022-10-28T23:04:09.097Z,101354.75
2022-10-28T23:06:35.232Z,101345.16
2022-10-28T23:09:01.392Z,101346.25
2022-10-28T23:11:27.549Z,101345.47
2022-10-28T23:13:53.667Z,101350.63
2022-10-28T23:16:19.794Z,101349.00
2022-10-28T23:18:45.922Z,101349.44
2022-10-28T23:21:12.046Z,101348.56
2022-10-28T23:23:38.183Z,101351.28
2022-10-28T23:26:04.315Z,101344.34
2022-10-28T23:28:30.453Z,101334.56
2022-10-28T23:30:56.560Z,101338.88
2022-10-28T23:33:22.679Z,101330.91
2022-10-28T23:35:48.842Z,101331.69
2022-10-28T23:38:15.030Z,101324.47
2022-10-28T23:40:41.176Z,101324.16
2022-10-28T23:43:07.300Z,101331.81
2022-10-28T23:45:33.416Z,101335.97
2022-10-28T23:47:59.576Z,101339.22
2022-10-28T23:50:25.698Z,101336.50
2022-10-28T23:52:51.900Z,101337.28
2022-10-28T23:55:18.103Z,101338.06
2022-10-28T23:57:44.272Z,101338.06
